Time;durP1;ratioP1;P1;durP2;ratioP2;P2;SDS_P1;SDS_P2;PMS_P1;PMS_P2;Temp;Humidity;BMP_temperature;BMP_pressure;BME280_temperature;BME280_humidity;BME280_pressure;Samples;Min_cycle;Max_cycle;Signal;HPM_P1;HPM_P2
2021/01/29 00:02:24;;;;;;;0.40;0.40;;;;;;;2.42;89.94;97927.63;4903840;29;20240;-85
2021/01/29 00:05:23;;;;;;;0.40;0.40;;;;;;;2.45;90.07;97934.31;4904426;29;20234;-85
2021/01/29 00:08:47;;;;;;;0.30;0.30;;;;;;;2.48;89.55;97932.06;4936763;28;20243;-85
2021/01/29 00:12:08;;;;;;;0.40;0.40;;;;;;;2.45;89.30;97923.75;4944602;28;20262;-86
2021/01/29 00:14:39;;;;;;;0.40;0.40;;;;;;;2.42;89.72;97932.94;4933570;29;20277;-84
2021/01/29 00:17:07;;;;;;;0.40;0.40;;;;;;;2.53;89.33;97952.59;4915610;29;20240;-84
2021/01/29 00:19:39;;;;;;;0.40;0.40;;;;;;;2.49;89.78;97946.91;4914500;29;20240;-85
2021/01/29 00:22:08;;;;;;;0.40;0.40;;;;;;;2.56;89.21;97954.84;4897047;29;20248;-85
2021/01/29 00:27:55;;;;;;;0.40;0.40;;;;;;;2.70;90.07;97948.47;4928685;29;20232;-85
2021/01/29 00:30:28;;;;;;;0.40;0.40;;;;;;;2.68;90.16;97942.56;4876952;29;20235;-85
2021/01/29 00:33:00;;;;;;;0.33;0.33;;;;;;;2.67;90.33;97917.13;4838004;29;20242;-85
2021/01/29 00:35:31;;;;;;;0.40;0.40;;;;;;;2.73;90.62;97950.69;4854817;29;20208;-85
2021/01/29 00:37:59;;;;;;;0.40;0.40;;;;;;;2.80;90.10;97953.31;4838228;29;20251;-85
2021/01/29 00:40:26;;;;;;;0.40;0.40;;;;;;;2.63;90.74;97937.09;4851500;29;20235;-85
2021/01/29 00:43:36;;;;;;;0.40;0.40;;;;;;;2.78;90.77;97958.00;4828069;29;20311;-85
2021/01/29 00:50:08;;;;;;;0.40;0.40;;;;;;;3.06;90.87;97975.16;4852629;28;20310;-85
2021/01/29 00:52:37;;;;;;;0.40;0.40;;;;;;;2.98;91.16;97964.81;4838379;29;20262;-85
2021/01/29 00:55:05;;;;;;;0.40;0.40;;;;;;;3.09;91.71;97977.38;4836447;29;20247;-85
2021/01/29 00:57:58;;;;;;;0.40;0.40;;;;;;;3.26;91.18;97985.63;4846583;29;20236;-85
2021/01/29 01:01:13;;;;;;;0.40;0.40;;;;;;;3.42;91.73;97989.59;4837898;29;20290;-85
2021/01/29 01:04:02;;;;;;;0.40;0.40;;;;;;;3.48;90.57;97983.44;4856934;28;20726;-85
2021/01/29 01:06:29;;;;;;;0.40;0.40;;;;;;;3.54;91.05;97966.72;4819131;29;20243;-84
2021/01/29 01:09:31;;;;;;;0.40;0.40;;;;;;;3.63;90.70;97976.00;4837283;29;20245;-85
2021/01/29 01:12:40;;;;;;;0.40;0.40;;;;;;;3.72;90.57;97973.91;4838254;29;20250;-85
2021/01/29 01:19:23;;;;;;;0.40;0.40;;;;;;;3.89;89.90;97970.50;4851198;29;20242;-85
2021/01/29 01:21:57;;;;;;;0.40;0.40;;;;;;;3.99;90.16;97986.72;4825172;29;20266;-85
2021/01/29 01:25:17;;;;;;;0.40;0.40;;;;;;;4.03;89.97;97975.66;4844018;29;20239;-85
2021/01/29 01:28:37;;;;;;;0.40;0.40;;;;;;;3.95;89.38;97971.47;4854764;29;20266;-85
2021/01/29 01:31:14;;;;;;;0.40;0.40;;;;;;;4.07;89.70;97990.91;4902741;29;20691;-84
2021/01/29 01:34:29;;;;;;;0.40;0.40;;;;;;;4.15;89.73;97997.81;4920998;28;20672;-84
2021/01/29 01:37:49;;;;;;;0.40;0.40;;;;;;;4.10;89.59;97995.81;4944281;29;20234;-85
2021/01/29 01:40:41;;;;;;;0.40;0.40;;;;;;;4.24;88.70;98005.25;4932038;28;20232;-85
2021/01/29 01:43:14;;;;;;;0.40;0.40;;;;;;;4.31;88.51;98005.19;4919087;29;20231;-85
2021/01/29 01:46:25;;;;;;;0.40;0.40;;;;;;;4.15;88.46;97979.25;4903847;28;20236;-84
2021/01/29 01:49:15;;;;;;;0.40;0.40;;;;;;;4.33;88.12;98003.13;4931844;29;20310;-83
2021/01/29 01:52:39;;;;;;;0.40;0.40;;;;;;;4.31;88.45;98006.00;4931183;28;20224;-85
2021/01/29 01:56:07;;;;;;;0.40;0.40;;;;;;;4.17;88.40;97979.81;4938592;28;20241;-85
2021/01/29 01:58:59;;;;;;;0.30;0.30;;;;;;;4.12;88.41;97972.53;4893206;29;20246;-85
2021/01/29 02:06:09;;;;;;;0.40;0.40;;;;;;;4.13;88.58;97984.75;4873049;29;20252;-85
2021/01/29 02:09:28;;;;;;;0.40;0.40;;;;;;;4.07;89.17;97980.31;4867459;29;20641;-85
2021/01/29 02:12:16;;;;;;;0.40;0.40;;;;;;;4.19;88.54;97989.19;4855305;29;20226;-85
2021/01/29 02:15:28;;;;;;;0.40;0.40;;;;;;;4.18;88.44;97979.63;4844056;29;20250;-85
2021/01/29 02:18:57;;;;;;;0.40;0.40;;;;;;;4.20;88.86;97992.66;4856988;29;20210;-85
2021/01/29 02:26:40;;;;;;;0.40;0.40;;;;;;;4.10;89.05;98001.09;4946245;28;20311;-85
2021/01/29 02:30:46;;;;;;;0.40;0.40;;;;;;;4.09;89.01;98001.31;4936634;28;20254;-85
2021/01/29 02:38:44;;;;;;;0.30;0.30;;;;;;;3.88;89.61;97999.84;5110816;23;20290;-87
2021/01/29 02:42:32;;;;;;;0.40;0.40;;;;;;;3.89;89.80;97990.88;4965238;28;20227;-87
2021/01/29 02:45:37;;;;;;;0.40;0.40;;;;;;;4.06;89.30;97993.81;4957923;28;20239;-87
2021/01/29 02:48:55;;;;;;;0.40;0.40;;;;;;;4.15;89.05;98019.00;4944379;28;20241;-87
2021/01/29 02:52:34;;;;;;;0.40;0.40;;;;;;;4.19;88.95;98005.09;4975751;28;20253;-87
2021/01/29 02:56:15;;;;;;;0.30;0.30;;;;;;;4.14;89.00;98004.94;4967686;28;20231;-87
2021/01/29 02:59:37;;;;;;;0.40;0.40;;;;;;;4.11;89.05;97991.28;4974360;29;20226;-87
2021/01/29 03:02:57;;;;;;;0.40;0.40;;;;;;;4.11;88.90;98005.34;4944845;29;20306;-87
2021/01/29 03:05:53;;;;;;;0.40;0.40;;;;;;;4.18;88.76;98010.59;4969172;28;20269;-87
2021/01/29 03:08:40;;;;;;;0.40;0.40;;;;;;;4.08;88.81;97986.44;4977934;29;20228;-87
2021/01/29 03:12:04;;;;;;;0.40;0.40;;;;;;;4.17;88.51;97996.53;4976532;28;20262;-86
2021/01/29 03:15:13;;;;;;;0.40;0.40;;;;;;;4.12;88.39;97990.25;4976352;28;20303;-87
2021/01/29 03:18:06;;;;;;;0.40;0.40;;;;;;;4.18;88.86;98007.97;4967785;28;20246;-84
2021/01/29 03:25:38;;;;;;;0.40;0.40;;;;;;;4.05;88.79;97955.88;4966504;28;20242;-84
2021/01/29 03:29:10;;;;;;;0.40;0.40;;;;;;;4.15;88.65;97950.09;4964167;28;20241;-84
2021/01/29 03:32:24;;;;;;;0.40;0.40;;;;;;;4.03;88.22;97947.34;4955302;28;20673;-84
2021/01/29 03:35:39;;;;;;;0.40;0.40;;;;;;;4.14;88.89;97974.97;4941761;29;20357;-84
2021/01/29 03:39:15;;;;;;;0.40;0.40;;;;;;;4.04;88.44;97974.66;4967744;28;20242;-85
2021/01/29 03:43:26;;;;;;;0.30;0.30;;;;;;;4.17;88.68;97977.16;4959331;29;20518;-84
2021/01/29 03:46:58;;;;;;;0.40;0.40;;;;;;;4.18;88.55;97973.50;4919233;29;20321;-83
2021/01/29 03:50:21;;;;;;;0.30;0.30;;;;;;;4.25;88.07;97982.19;4905830;29;20285;-86
2021/01/29 03:53:23;;;;;;;0.30;0.30;;;;;;;4.19;88.18;97969.81;4916181;29;20247;-86
2021/01/29 03:56:33;;;;;;;0.40;0.40;;;;;;;4.15;87.91;97958.84;4955258;29;20262;-87
2021/01/29 04:00:13;;;;;;;0.40;0.40;;;;;;;4.15;87.95;97958.03;4961801;29;20229;-87
2021/01/29 04:03:24;;;;;;;0.40;0.40;;;;;;;4.00;88.16;97945.13;4950624;29;20262;-87
2021/01/29 04:07:03;;;;;;;0.40;0.40;;;;;;;4.08;87.91;97939.53;4954515;29;20337;-84
2021/01/29 04:10:07;;;;;;;0.40;0.40;;;;;;;3.96;88.23;97923.56;4957653;28;20599;-86
2021/01/29 04:13:45;;;;;;;0.40;0.40;;;;;;;3.94;88.45;97903.59;4947004;28;20254;-87
2021/01/29 04:16:43;;;;;;;0.40;0.40;;;;;;;3.93;88.68;97891.38;4956003;28;20228;-87
2021/01/29 04:19:27;;;;;;;0.40;0.40;;;;;;;3.81;88.50;97875.41;4927612;29;20289;-87
2021/01/29 04:22:46;;;;;;;0.40;0.40;;;;;;;3.75;88.82;97863.03;4959878;28;20305;-85
2021/01/29 04:27:00;;;;;;;0.40;0.40;;;;;;;3.59;88.41;97865.44;4963784;28;20243;-84
2021/01/29 04:30:33;;;;;;;0.40;0.40;;;;;;;3.61;89.06;97876.59;4953643;28;20235;-84
2021/01/29 04:33:22;;;;;;;0.40;0.40;;;;;;;3.49;88.92;97869.38;4917017;29;20298;-84
2021/01/29 04:36:28;;;;;;;0.40;0.40;;;;;;;3.37;88.91;97868.47;4940886;28;20262;-84
2021/01/29 04:39:11;;;;;;;0.40;0.40;;;;;;;3.42;89.00;97912.81;4875405;28;20242;-85
2021/01/29 04:46:00;;;;;;;0.40;0.40;;;;;;;3.41;88.91;97912.00;4869724;29;20250;-85
2021/01/29 04:49:51;;;;;;;0.40;0.40;;;;;;;3.21;89.38;97884.06;4934194;29;20212;-82
2021/01/29 04:52:52;;;;;;;0.40;0.40;;;;;;;3.27;89.21;97922.91;4887852;29;20240;-82
2021/01/29 04:55:51;;;;;;;0.40;0.40;;;;;;;3.31;89.46;97938.13;4958905;29;20263;-82
2021/01/29 05:02:48;;;;;;;0.40;0.40;;;;;;;3.53;88.24;97949.19;4934069;29;20246;-81
2021/01/29 05:07:10;;;;;;;0.50;0.50;;;;;;;3.47;88.78;97932.31;4892977;23;20236;-82
2021/01/29 05:10:36;;;;;;;0.40;0.40;;;;;;;3.64;88.23;97942.41;4976581;23;20235;-83
2021/01/29 05:13:53;;;;;;;0.40;0.40;;;;;;;3.75;87.92;97925.78;4876305;29;20216;-82
2021/01/29 05:16:55;;;;;;;0.40;0.40;;;;;;;3.62;87.79;97915.31;4900276;23;20250;-82
2021/01/29 05:22:46;;;;;;;0.40;0.40;;;;;;;3.69;88.05;97924.81;4940778;29;20211;-82
2021/01/29 05:25:59;;;;;;;0.40;0.40;;;;;;;3.56;88.61;97940.81;2899992;27;20266;-82
2021/01/29 05:29:19;;;;;;;0.40;0.40;;;;;;;3.65;88.79;97941.34;4980510;23;20224;-82
2021/01/29 05:32:36;;;;;;;0.50;0.50;;;;;;;3.59;88.79;97939.59;5570967;23;20231;-82
2021/01/29 05:36:03;;;;;;;0.40;0.40;;;;;;;3.63;88.69;97938.94;5080179;23;20310;-82
2021/01/29 05:39:35;;;;;;;0.40;0.40;;;;;;;3.55;88.72;97924.09;4894028;29;20296;-83
2021/01/29 05:42:52;;;;;;;0.30;0.30;;;;;;;3.55;88.98;97928.59;4913582;23;20314;-82
2021/01/29 05:46:25;;;;;;;0.40;0.40;;;;;;;3.59;88.96;97931.66;4977616;29;20195;-82
2021/01/29 05:49:27;;;;;;;0.40;0.40;;;;;;;3.59;88.76;97929.00;4967407;28;20259;-83
2021/01/29 05:53:04;;;;;;;0.40;0.40;;;;;;;3.67;88.66;97926.88;4966672;28;20243;-82
2021/01/29 05:56:23;;;;;;;0.40;0.40;;;;;;;3.40;88.28;97875.16;4977980;29;20215;-82
2021/01/29 05:59:36;;;;;;;0.37;0.37;;;;;;;3.51;88.79;97909.69;4954326;28;20242;-83
2021/01/29 06:03:17;;;;;;;0.40;0.40;;;;;;;3.63;88.67;97927.53;4931174;23;20243;-81
2021/01/29 06:06:19;;;;;;;0.40;0.40;;;;;;;3.51;88.47;97895.63;4957786;28;20279;-82
2021/01/29 06:09:26;;;;;;;0.40;0.40;;;;;;;3.62;88.64;97908.19;4942998;29;20643;-82
2021/01/29 06:12:34;;;;;;;0.40;0.40;;;;;;;3.61;89.29;97917.16;4809739;23;4251308;-82
2021/01/29 06:16:41;;;;;;;0.40;0.40;;;;;;;3.65;89.21;97928.91;4935006;23;20285;-82
2021/01/29 06:27:50;;;;;;;0.40;0.40;;;;;;;3.68;89.04;97928.50;4957445;28;20238;-84
2021/01/29 06:35:55;;;;;;;0.40;0.40;;;;;;;3.71;89.16;97938.66;4967351;28;20246;-85
2021/01/29 06:39:11;;;;;;;0.40;0.40;;;;;;;3.62;88.82;97924.06;4966454;28;20265;-84
2021/01/29 06:43:16;;;;;;;0.40;0.40;;;;;;;3.77;88.96;97958.19;4937055;29;20255;-84
2021/01/29 06:46:29;;;;;;;0.40;0.40;;;;;;;3.79;88.72;97941.03;4911176;29;20319;-83
2021/01/29 06:50:25;;;;;;;0.40;0.40;;;;;;;3.67;89.03;97955.19;4929796;29;20255;-84
2021/01/29 06:54:16;;;;;;;0.40;0.40;;;;;;;3.79;88.86;97959.56;4948781;29;20564;-83
2021/01/29 06:58:07;;;;;;;0.40;0.40;;;;;;;3.83;88.82;97941.41;4939266;28;20228;-84
2021/01/29 07:24:28;;;;;;;0.40;0.40;;;;;;;4.03;88.75;97904.13;4863401;23;20267;-85
2021/01/29 07:31:20;;;;;;;0.40;0.40;;;;;;;4.02;89.00;97919.22;4949174;29;20239;-85
2021/01/29 07:34:28;;;;;;;0.30;0.30;;;;;;;4.02;89.24;97870.69;4935435;29;20225;-85
2021/01/29 07:45:03;;;;;;;0.40;0.40;;;;;;;4.02;89.49;97881.28;4877232;29;20285;-83
2021/01/29 07:52:47;;;;;;;0.40;0.40;;;;;;;3.99;90.14;97859.53;4901458;29;20231;-85
2021/01/29 08:04:04;;;;;;;0.40;0.40;;;;;;;4.25;90.28;97879.59;4964068;28;20305;-85
2021/01/29 08:06:59;;;;;;;0.37;0.37;;;;;;;4.26;90.25;97873.28;4946502;29;20256;-85
2021/01/29 08:09:35;;;;;;;0.40;0.40;;;;;;;4.27;90.25;97858.19;4905045;29;20301;-85
2021/01/29 08:12:06;;;;;;;0.40;0.40;;;;;;;4.30;90.30;97857.72;4878052;29;20302;-86
2021/01/29 08:14:55;;;;;;;0.40;0.40;;;;;;;4.39;90.12;97859.84;4879875;29;20237;-86
2021/01/29 08:18:44;;;;;;;0.30;0.30;;;;;;;4.31;89.99;97828.34;4901599;29;20245;-85
2021/01/29 08:21:51;;;;;;;0.40;0.40;;;;;;;4.47;90.02;97844.69;4883921;29;20294;-85
2021/01/29 08:25:35;;;;;;;0.30;0.30;;;;;;;4.51;90.20;97851.16;4912063;29;20249;-86
2021/01/29 08:33:39;;;;;;;0.30;0.30;;;;;;;4.60;89.94;97841.88;5029162;23;20228;-85
2021/01/29 08:36:51;;;;;;;0.40;0.40;;;;;;;4.65;89.77;97836.69;4966284;28;20208;-85
2021/01/29 08:44:20;;;;;;;0.30;0.30;;;;;;;4.68;88.96;97829.09;4960532;28;20223;-84
2021/01/29 08:47:48;;;;;;;0.40;0.40;;;;;;;4.68;88.54;97820.31;4976632;28;20201;-85
2021/01/29 08:51:40;;;;;;;0.30;0.30;;;;;;;4.74;87.98;97824.72;4987366;28;20251;-85
2021/01/29 08:55:14;;;;;;;0.33;0.33;;;;;;;4.76;87.21;97817.34;4995565;28;20279;-89
2021/01/29 08:59:02;;;;;;;0.40;0.40;;;;;;;4.61;87.35;97771.88;4989844;28;20228;-85
2021/01/29 09:03:05;;;;;;;0.40;0.40;;;;;;;4.81;88.27;97785.63;4958859;29;20220;-85
2021/01/29 09:11:20;;;;;;;0.30;0.30;;;;;;;5.33;88.58;97789.28;5011515;23;20331;-85
2021/01/29 09:22:34;;;;;;;0.33;0.33;;;;;;;5.71;85.86;97789.63;4980665;28;20237;-85
2021/01/29 09:25:51;;;;;;;0.37;0.37;;;;;;;5.62;86.20;97783.06;4966724;28;20711;-85
2021/01/29 09:29:34;;;;;;;0.37;0.37;;;;;;;5.71;86.03;97786.16;4980783;28;20190;-85
2021/01/29 09:45:10;;;;;;;0.30;0.30;;;;;;;5.77;85.31;97756.00;4929223;29;20239;-87
2021/01/29 09:48:41;;;;;;;0.30;0.30;;;;;;;5.83;84.59;97759.59;4907549;29;20239;-84
2021/01/29 09:56:13;;;;;;;0.33;0.33;;;;;;;5.87;83.34;97745.63;4928752;29;20231;-85
2021/01/29 09:59:56;;;;;;;0.40;0.40;;;;;;;5.83;84.12;97728.50;4929119;29;20295;-85
2021/01/29 10:03:31;;;;;;;0.30;0.30;;;;;;;5.80;84.08;97731.59;4903271;29;20251;-85
2021/01/29 10:14:32;;;;;;;0.40;0.40;;;;;;;5.73;84.65;97710.50;4931077;29;20267;-85
2021/01/29 10:21:28;;;;;;;0.40;0.40;;;;;;;5.60;85.14;97700.09;4932851;29;20239;-85
2021/01/29 10:24:38;;;;;;;0.40;0.40;;;;;;;5.71;85.05;97701.13;5545587;23;20250;-87
2021/01/29 10:27:45;;;;;;;0.40;0.40;;;;;;;5.63;85.30;97689.03;4921807;29;20234;-85
2021/01/29 10:30:19;;;;;;;0.30;0.30;;;;;;;5.71;85.07;97696.63;4908019;29;20236;-87
2021/01/29 10:33:20;;;;;;;0.40;0.40;;;;;;;5.74;85.43;97698.81;4913380;29;20246;-87
2021/01/29 10:44:10;;;;;;;0.40;0.40;;;;;;;5.82;85.25;97683.53;4919519;29;20236;-85
2021/01/29 10:51:39;;;;;;;0.30;0.30;;;;;;;5.44;83.47;97662.84;4932490;29;20298;-85
2021/01/29 10:54:20;;;;;;;0.40;0.40;;;;;;;5.44;83.85;97666.31;4900067;29;20228;-85
2021/01/29 10:57:47;;;;;;;0.40;0.40;;;;;;;5.33;83.93;97641.38;4914187;29;20240;-85
2021/01/29 11:00:56;;;;;;;0.40;0.40;;;;;;;5.37;83.80;97665.63;4920320;29;20260;-85
2021/01/29 11:04:03;;;;;;;0.40;0.40;;;;;;;5.35;83.47;97637.69;4898923;29;20267;-85
2021/01/29 11:07:30;;;;;;;0.40;0.40;;;;;;;5.37;83.97;97657.66;4897362;29;20239;-85
2021/01/29 11:10:09;;;;;;;0.40;0.40;;;;;;;5.45;83.54;97654.66;4870009;29;20347;-85
2021/01/29 11:12:41;;;;;;;0.33;0.33;;;;;;;5.55;83.63;97665.47;4898434;29;20317;-84
2021/01/29 11:15:18;;;;;;;0.40;0.40;;;;;;;5.65;83.10;97655.06;4915209;29;20298;-85
2021/01/29 11:18:19;;;;;;;0.30;0.30;;;;;;;5.68;83.09;97667.06;4932205;29;20233;-85
2021/01/29 11:20:46;;;;;;;0.30;0.30;;;;;;;5.73;82.30;97656.53;4918256;29;20231;-85
2021/01/29 11:23:59;;;;;;;0.40;0.40;;;;;;;5.78;82.48;97648.69;4918013;29;20243;-85
2021/01/29 11:27:31;;;;;;;0.40;0.40;;;;;;;5.84;81.77;97633.59;4899544;29;20325;-83
2021/01/29 11:30:24;;;;;;;0.30;0.30;;;;;;;5.95;80.34;97630.13;4836767;29;20659;-84
2021/01/29 11:33:14;;;;;;;0.40;0.40;;;;;;;6.04;81.56;97636.69;4898356;29;20187;-84
2021/01/29 11:35:50;;;;;;;0.30;0.30;;;;;;;6.14;81.07;97627.03;4898408;29;20244;-84
2021/01/29 11:38:56;;;;;;;0.30;0.30;;;;;;;6.17;80.62;97623.88;4882240;29;20239;-85
2021/01/29 11:42:14;;;;;;;0.20;0.20;;;;;;;6.22;80.18;97633.81;4883079;29;20228;-85
2021/01/29 11:45:26;;;;;;;0.30;0.30;;;;;;;6.21;80.08;97637.50;4895561;29;20251;-84
2021/01/29 11:48:22;;;;;;;0.40;0.40;;;;;;;6.23;80.18;97653.22;4912023;29;20238;-84
2021/01/29 11:56:45;;;;;;;0.30;0.30;;;;;;;6.14;79.01;97623.56;4836381;29;20244;-84
2021/01/29 12:00:21;;;;;;;0.40;0.40;;;;;;;6.21;79.14;97632.19;4896788;29;20298;-84
2021/01/29 12:04:23;;;;;;;0.40;0.40;;;;;;;6.11;80.05;97622.19;4834358;29;20247;-84
2021/01/29 12:08:33;;;;;;;0.30;0.30;;;;;;;5.85;80.38;97603.34;4834491;29;20239;-84
2021/01/29 12:11:56;;;;;;;0.40;0.40;;;;;;;5.94;80.07;97610.72;4835097;29;20270;-84
2021/01/29 12:19:08;;;;;;;0.40;0.40;;;;;;;6.02;81.00;97580.31;4895252;29;20242;-85
2021/01/29 12:23:24;;;;;;;0.40;0.40;;;;;;;6.13;80.72;97568.78;4850656;29;20339;-84
2021/01/29 12:31:06;;;;;;;0.40;0.40;;;;;;;6.42;79.19;97503.00;4919816;29;20246;-84
2021/01/29 12:34:00;;;;;;;0.40;0.40;;;;;;;6.44;79.98;97519.53;4889343;29;20249;-85
2021/01/29 12:36:35;;;;;;;0.30;0.30;;;;;;;6.41;80.08;97520.00;4913042;29;20315;-84
2021/01/29 12:39:51;;;;;;;0.40;0.40;;;;;;;6.48;80.75;97516.16;4913255;29;20247;-84
2021/01/29 12:43:24;;;;;;;0.40;0.40;;;;;;;6.43;80.69;97501.97;4899399;29;20235;-85
2021/01/29 12:46:07;;;;;;;0.30;0.30;;;;;;;6.63;80.30;97489.72;4873430;29;20244;-84
2021/01/29 12:48:57;;;;;;;0.30;0.30;;;;;;;6.90;79.74;97495.16;4889896;29;20258;-83
2021/01/29 12:51:37;;;;;;;0.30;0.30;;;;;;;7.00;79.33;97481.94;4892953;29;20249;-84
2021/01/29 12:54:43;;;;;;;0.30;0.30;;;;;;;7.07;78.86;97482.56;4877146;29;20239;-84
2021/01/29 12:57:40;;;;;;;0.40;0.40;;;;;;;7.13;79.34;97478.13;4820716;29;20316;-83
2021/01/29 13:00:53;;;;;;;0.30;0.30;;;;;;;7.19;78.67;97453.13;4825718;29;20246;-84
2021/01/29 13:03:54;;;;;;;0.30;0.30;;;;;;;7.32;78.74;97475.94;4903590;29;20195;-84
2021/01/29 13:06:45;;;;;;;0.20;0.20;;;;;;;7.43;78.46;97467.78;4910134;29;20236;-84
2021/01/29 13:09:50;;;;;;;0.40;0.40;;;;;;;7.45;78.79;97452.34;4918679;29;20232;-84
2021/01/29 13:12:38;;;;;;;0.30;0.30;;;;;;;7.46;77.89;97451.31;4903512;29;20292;-84
2021/01/29 13:19:05;;;;;;;0.40;0.40;;;;;;;7.60;77.44;97440.22;4908169;29;20699;-84
2021/01/29 13:22:17;;;;;;;0.30;0.30;;;;;;;7.68;77.64;97427.22;4899805;29;20228;-85
2021/01/29 13:25:25;;;;;;;0.30;0.30;;;;;;;7.80;76.93;97425.19;4894402;29;21328;-84
2021/01/29 13:28:19;;;;;;;0.30;0.30;;;;;;;7.79;76.62;97409.47;4929460;28;20216;-84
2021/01/29 13:31:23;;;;;;;0.30;0.30;;;;;;;7.83;77.33;97406.03;4930837;29;20254;-84
2021/01/29 13:34:19;;;;;;;0.30;0.30;;;;;;;7.85;77.28;97390.56;4919203;29;20748;-85
2021/01/29 13:37:09;;;;;;;0.30;0.30;;;;;;;8.06;77.15;97418.19;4913383;29;20232;-85
2021/01/29 13:39:40;;;;;;;0.30;0.30;;;;;;;8.05;76.98;97405.91;4912028;29;20248;-84
2021/01/29 13:42:35;;;;;;;0.30;0.30;;;;;;;8.17;76.35;97409.19;4915186;29;20231;-84
2021/01/29 13:45:02;;;;;;;0.30;0.30;;;;;;;8.23;76.23;97410.81;4897494;29;20242;-84
2021/01/29 13:47:32;;;;;;;0.30;0.30;;;;;;;8.14;76.40;97401.69;4911330;29;20240;-84
2021/01/29 13:50:52;;;;;;;0.30;0.30;;;;;;;8.18;76.56;97397.44;4904226;29;20293;-84
2021/01/29 13:53:53;;;;;;;0.30;0.30;;;;;;;8.16;76.76;97388.13;4910650;29;20231;-84
2021/01/29 13:57:10;;;;;;;0.30;0.30;;;;;;;8.15;76.68;97387.31;4904227;29;20250;-84
2021/01/29 14:00:19;;;;;;;0.30;0.30;;;;;;;8.19;77.05;97384.91;4914669;29;20235;-84
2021/01/29 14:03:26;;;;;;;0.23;0.23;;;;;;;8.28;76.73;97391.38;4937239;28;20764;-85
2021/01/29 14:06:17;;;;;;;0.30;0.30;;;;;;;8.34;76.52;97385.84;4946586;28;20239;-85
2021/01/29 14:09:22;;;;;;;0.30;0.30;;;;;;;8.28;76.43;97362.84;4934262;29;20242;-86
2021/01/29 14:12:36;;;;;;;0.30;0.30;;;;;;;8.39;76.46;97380.53;4916013;29;20241;-84
2021/01/29 14:15:40;;;;;;;0.30;0.30;;;;;;;8.23;76.03;97365.47;4921987;28;20243;-85
2021/01/29 14:18:35;;;;;;;0.30;0.30;;;;;;;8.29;75.28;97356.47;4930397;28;20245;-85
2021/01/29 14:21:19;;;;;;;0.40;0.40;;;;;;;8.11;76.13;97356.06;4931102;29;20233;-84
2021/01/29 14:24:38;;;;;;;0.30;0.30;;;;;;;7.94;75.97;97334.91;4930644;29;20236;-85
2021/01/29 14:27:41;;;;;;;0.23;0.23;;;;;;;7.92;76.66;97331.72;4894133;29;20253;-84
2021/01/29 14:30:46;;;;;;;0.20;0.20;;;;;;;7.95;76.24;97355.19;4855475;29;20757;-84
2021/01/29 14:34:00;;;;;;;0.20;0.20;;;;;;;7.84;77.27;97351.63;4814254;29;20232;-85
2021/01/29 14:36:59;;;;;;;0.30;0.30;;;;;;;7.74;77.34;97353.44;4823531;29;20279;-84
2021/01/29 14:51:26;;;;;;;0.30;0.30;;;;;;;7.42;78.99;97354.25;4828123;29;20232;-85
2021/01/29 14:54:43;;;;;;;0.33;0.33;;;;;;;7.39;80.10;97356.63;4839050;29;20240;-85
2021/01/29 14:57:46;;;;;;;0.30;0.30;;;;;;;7.28;80.57;97349.63;4876617;29;20310;-84
2021/01/29 15:00:54;;;;;;;0.30;0.30;;;;;;;7.28;81.12;97354.97;4862948;29;20255;-85
2021/01/29 15:03:36;;;;;;;0.30;0.30;;;;;;;7.21;80.92;97355.16;4898890;29;20330;-85
2021/01/29 15:06:11;;;;;;;0.30;0.30;;;;;;;7.06;81.36;97363.81;4876044;29;20327;-84
2021/01/29 15:08:57;;;;;;;0.30;0.30;;;;;;;7.17;82.18;97419.84;4858029;29;20234;-84
2021/01/29 15:17:02;;;;;;;0.40;0.40;;;;;;;7.19;83.23;97436.34;4818249;29;20254;-85
2021/01/29 15:29:31;;;;;;;0.20;0.20;;;;;;;6.96;84.90;97416.13;4949244;28;20231;-84
2021/01/29 15:36:22;;;;;;;0.40;0.40;;;;;;;7.01;84.49;97453.47;4901343;28;20251;-85
2021/01/29 15:42:49;;;;;;;0.30;0.30;;;;;;;6.99;84.03;97445.75;4911670;28;20236;-84
2021/01/29 15:49:54;;;;;;;0.30;0.30;;;;;;;7.23;83.63;97466.78;4928612;29;20260;-84
2021/01/29 15:53:23;;;;;;;0.40;0.40;;;;;;;7.57;80.25;97462.03;4896440;29;20248;-84
2021/01/29 15:57:16;;;;;;;0.30;0.30;;;;;;;7.52;81.45;97444.94;4928801;29;20596;-84
2021/01/29 16:01:06;;;;;;;0.30;0.30;;;;;;;7.61;81.88;97465.78;4836221;29;20234;-84
2021/01/29 16:06:46;;;;;;;0.30;0.30;;;;;;;7.52;81.60;97441.47;1328962;26;20269;-84
2021/01/29 16:09:33;;;;;;;0.40;0.40;;;;;;;7.63;81.14;97437.84;4942130;29;20238;-84
2021/01/29 16:15:16;;;;;;;0.33;0.33;;;;;;;7.68;81.26;97455.75;1409354;27;20248;-80
2021/01/29 16:17:47;;;;;;;0.30;0.30;;;;;;;7.56;81.29;97441.78;4914827;29;20246;-83
2021/01/29 16:35:36;;;;;;;0.30;0.30;;;;;;;7.55;80.74;97453.50;4933735;28;20235;-83
2021/01/29 16:38:09;;;;;;;0.40;0.40;;;;;;;7.46;80.17;97439.84;4934282;23;20283;-83
2021/01/29 16:40:44;;;;;;;0.30;0.30;;;;;;;7.33;80.63;97411.72;4935619;29;20236;-82
2021/01/29 16:43:27;;;;;;;0.30;0.30;;;;;;;7.42;80.10;97431.53;4951513;28;20245;-83
2021/01/29 16:46:31;;;;;;;0.30;0.30;;;;;;;7.35;79.69;97408.81;4979062;23;20278;-83
2021/01/29 16:49:26;;;;;;;0.30;0.30;;;;;;;7.34;79.50;97415.19;4956092;29;20226;-82
2021/01/29 16:52:05;;;;;;;0.30;0.30;;;;;;;7.61;78.90;97441.81;4956572;28;20667;-83
2021/01/29 16:54:39;;;;;;;0.30;0.30;;;;;;;7.70;78.26;97448.31;4969695;29;20270;-82
2021/01/29 16:57:20;;;;;;;0.30;0.30;;;;;;;7.75;78.45;97456.31;4969978;28;20231;-83
2021/01/29 16:59:48;;;;;;;0.30;0.30;;;;;;;7.93;77.14;97446.06;4945373;28;20238;-82
2021/01/29 17:02:20;;;;;;;0.30;0.30;;;;;;;7.88;75.30;97439.94;4935068;29;20266;-82
2021/01/29 17:05:13;;;;;;;0.33;0.33;;;;;;;8.18;74.57;97456.13;4918322;23;20229;-81
2021/01/29 17:08:14;;;;;;;0.30;0.30;;;;;;;8.34;74.58;97470.41;5009736;23;20250;-82
2021/01/29 17:10:46;;;;;;;0.40;0.40;;;;;;;8.07;74.71;97441.09;4989345;23;20243;-82
2021/01/29 17:13:18;;;;;;;0.30;0.30;;;;;;;8.23;74.84;97487.38;4910123;29;20435;-83
2021/01/29 17:15:49;;;;;;;0.20;0.20;;;;;;;8.14;74.02;97462.25;4903649;29;20265;-82
2021/01/29 17:18:32;;;;;;;0.30;0.30;;;;;;;7.95;73.84;97443.97;4900831;29;20679;-82
2021/01/29 17:21:02;;;;;;;0.30;0.30;;;;;;;8.44;72.14;97475.81;4969570;23;20242;-82
2021/01/29 17:24:00;;;;;;;0.40;0.40;;;;;;;8.28;72.69;97463.41;4949572;29;20274;-82
2021/01/29 17:26:54;;;;;;;0.30;0.30;;;;;;;8.26;72.56;97460.16;5035825;23;20254;-81
2021/01/29 17:29:42;;;;;;;0.30;0.30;;;;;;;8.18;72.83;97476.66;4940009;29;20206;-81
2021/01/29 17:32:09;;;;;;;0.30;0.30;;;;;;;8.04;73.68;97454.97;4937279;28;20234;-82
2021/01/29 17:35:01;;;;;;;0.30;0.30;;;;;;;8.00;73.34;97461.88;4950712;28;20235;-82
2021/01/29 17:37:33;;;;;;;0.40;0.40;;;;;;;8.01;73.47;97471.47;4921705;29;20175;-81
2021/01/29 17:40:00;;;;;;;0.30;0.30;;;;;;;7.83;74.22;97463.88;4963474;23;20243;-82
2021/01/29 17:42:29;;;;;;;0.30;0.30;;;;;;;7.97;73.11;97481.88;4920440;29;20269;-82
2021/01/29 17:45:34;;;;;;;0.30;0.30;;;;;;;7.77;73.97;97473.69;4935932;23;20226;-81
2021/01/29 17:48:33;;;;;;;0.30;0.30;;;;;;;8.02;73.60;97494.44;4910516;23;20290;-81
2021/01/29 17:51:28;;;;;;;0.40;0.40;;;;;;;8.03;73.95;97487.22;4912393;29;20212;-81
2021/01/29 17:54:02;;;;;;;0.30;0.30;;;;;;;7.93;74.46;97483.41;4899949;29;20204;-81
2021/01/29 17:56:50;;;;;;;0.30;0.30;;;;;;;8.14;74.24;97513.72;4913096;29;20205;-81
2021/01/29 17:59:19;;;;;;;0.40;0.40;;;;;;;8.23;72.96;97498.03;4897290;29;20248;-81
2021/01/29 18:01:52;;;;;;;0.30;0.30;;;;;;;8.34;72.31;97497.09;4914104;29;20245;-80
2021/01/29 18:04:27;;;;;;;0.30;0.30;;;;;;;8.40;71.56;97496.06;4923144;23;20208;-81
2021/01/29 18:07:00;;;;;;;0.30;0.30;;;;;;;8.29;71.53;97486.34;4949220;23;20244;-81
2021/01/29 18:09:39;;;;;;;0.40;0.40;;;;;;;8.34;71.39;97483.75;4935056;23;20280;-81
2021/01/29 18:12:11;;;;;;;0.40;0.40;;;;;;;8.49;71.67;97515.06;4934839;29;20215;-81
2021/01/29 18:14:41;;;;;;;0.40;0.40;;;;;;;8.44;70.81;97513.19;4936422;29;20256;-81
2021/01/29 18:17:41;;;;;;;0.30;0.30;;;;;;;8.52;70.36;97518.03;4949578;29;20236;-81
2021/01/29 18:20:50;;;;;;;0.30;0.30;;;;;;;8.67;68.47;97534.16;4950324;23;20224;-80
2021/01/29 18:23:26;;;;;;;0.30;0.30;;;;;;;8.66;68.28;97521.84;4933704;29;20238;-81
2021/01/29 18:25:54;;;;;;;0.30;0.30;;;;;;;8.70;68.71;97520.28;4949596;29;20229;-82
2021/01/29 18:28:32;;;;;;;0.20;0.20;;;;;;;8.76;68.08;97527.25;4927545;29;20447;-81
2021/01/29 18:31:02;;;;;;;0.30;0.30;;;;;;;8.77;67.37;97506.72;4916869;29;20219;-82
2021/01/29 18:33:35;;;;;;;0.30;0.30;;;;;;;8.70;68.11;97501.59;4916511;29;20243;-81
2021/01/29 18:36:23;;;;;;;0.30;0.30;;;;;;;8.90;66.69;97521.44;4925829;29;20289;-81